createdAt,value
2022-12-02T00:02:20.414Z,9.95
2022-12-02T00:04:57.166Z,9.75
2022-12-02T00:07:24.802Z,8.10
2022-12-02T00:12:26.716Z,7.60
2022-12-02T00:15:33.761Z,8.48
2022-12-02T00:18:00.530Z,7.70
2022-12-02T00:20:27.309Z,9.43
2022-12-02T00:22:54.188Z,8.27
2022-12-02T00:25:21.026Z,8.05
2022-12-02T00:27:47.828Z,8.23
2022-12-02T00:30:14.938Z,10.17
2022-12-02T00:32:41.813Z,8.65
2022-12-02T00:35:08.918Z,9.73
2022-12-02T00:37:35.684Z,7.70
2022-12-02T00:40:02.544Z,7.63
2022-12-02T00:42:29.386Z,8.52
2022-12-02T00:45:14.479Z,9.95
2022-12-02T00:47:41.298Z,10.35
2022-12-02T00:50:08.875Z,9.73
2022-12-02T00:55:02.717Z,7.72
2022-12-02T00:57:29.578Z,8.77
2022-12-02T00:59:56.474Z,10.50
2022-12-02T01:02:23.319Z,9.43
2022-12-02T01:04:50.426Z,9.35
2022-12-02T01:07:17.538Z,10.23
2022-12-02T01:09:44.336Z,10.88
2022-12-02T01:12:11.121Z,12.50
2022-12-02T01:14:37.927Z,8.33
2022-12-02T01:17:05.483Z,9.50
2022-12-02T01:19:32.585Z,8.80
2022-12-02T01:21:59.433Z,9.45
2022-12-02T01:24:26.232Z,9.43
2022-12-02T01:26:53.061Z,9.68
2022-12-02T01:29:19.895Z,9.85
2022-12-02T01:31:46.824Z,9.23
2022-12-02T01:34:13.753Z,12.18
2022-12-02T01:36:40.576Z,12.15
2022-12-02T01:39:07.398Z,10.53
2022-12-02T01:41:34.374Z,8.47
2022-12-02T01:44:01.437Z,8.93
2022-12-02T01:46:28.386Z,10.18
2022-12-02T01:48:55.669Z,9.13
2022-12-02T01:51:22.567Z,10.10
2022-12-02T01:53:49.537Z,9.35
2022-12-02T01:56:16.421Z,9.70
2022-12-02T01:58:43.349Z,10.27
2022-12-02T02:01:32.769Z,10.63
2022-12-02T02:04:01.496Z,11.23
2022-12-02T02:06:34.946Z,12.95
2022-12-02T02:09:02.389Z,12.02
2022-12-02T02:11:29.512Z,8.77
2022-12-02T02:13:57.245Z,9.40
2022-12-02T02:16:24.487Z,10.70
2022-12-02T02:18:51.499Z,9.73
2022-12-02T02:21:31.225Z,8.40
2022-12-02T02:23:58.110Z,10.30
2022-12-02T02:26:25.195Z,10.48
2022-12-02T02:28:52.225Z,8.20
2022-12-02T02:31:19.450Z,10.30
2022-12-02T02:33:48.282Z,11.07
2022-12-02T02:36:15.329Z,10.93
2022-12-02T02:38:42.172Z,9.68
2022-12-02T02:41:09.538Z,11.25
2022-12-02T02:43:38.748Z,12.43
2022-12-02T02:46:06.076Z,10.68
2022-12-02T02:48:34.656Z,13.00
2022-12-02T02:51:02.299Z,12.65
2022-12-02T02:55:56.072Z,10.38
2022-12-02T02:58:26.350Z,11.00
2022-12-02T03:01:14.872Z,12.55
2022-12-02T03:03:55.699Z,10.55
2022-12-02T03:06:26.671Z,10.80
2022-12-02T03:08:56.079Z,11.07
2022-12-02T03:11:24.766Z,11.98
2022-12-02T03:13:52.901Z,10.15
2022-12-02T03:16:23.927Z,11.27
2022-12-02T03:18:54.010Z,13.20
2022-12-02T03:21:22.766Z,12.23
2022-12-02T03:23:52.884Z,10.95
2022-12-02T03:26:19.965Z,13.00
2022-12-02T03:28:48.276Z,12.10
2022-12-02T03:31:15.745Z,11.35
2022-12-02T03:33:43.829Z,12.05
2022-12-02T03:36:11.964Z,11.47
2022-12-02T03:38:39.458Z,12.38
2022-12-02T03:41:07.272Z,12.80
2022-12-02T03:43:34.323Z,13.07
2022-12-02T03:46:03.102Z,12.93
2022-12-02T03:48:30.635Z,12.65
2022-12-02T03:50:58.626Z,12.32
2022-12-02T03:53:25.788Z,12.90
2022-12-02T03:55:52.636Z,13.43
2022-12-02T03:58:19.557Z,15.82
2022-12-02T04:00:46.673Z,13.07
2022-12-02T04:03:13.508Z,12.27
2022-12-02T04:05:43.864Z,13.07
2022-12-02T04:08:14.781Z,11.52
2022-12-02T04:10:41.602Z,12.45
2022-12-02T04:13:08.448Z,12.43
2022-12-02T04:15:35.352Z,13.25
2022-12-02T04:18:02.203Z,10.93
2022-12-02T04:20:29.117Z,12.98
2022-12-02T04:22:55.936Z,13.20
2022-12-02T04:25:22.708Z,14.77
2022-12-02T04:27:49.559Z,11.50
2022-12-02T04:30:16.593Z,12.90
2022-12-02T04:32:43.432Z,12.85
2022-12-02T04:35:10.531Z,15.27
2022-12-02T04:37:37.345Z,15.05
2022-12-02T04:40:05.684Z,12.37
2022-12-02T04:42:32.501Z,14.75
2022-12-02T04:44:59.516Z,14.38
2022-12-02T04:47:26.369Z,14.25
2022-12-02T04:49:53.156Z,13.10
2022-12-02T04:52:20.139Z,14.13
2022-12-02T04:54:46.955Z,11.70
2022-12-02T04:57:13.838Z,12.20
2022-12-02T04:59:40.654Z,15.00
2022-12-02T05:02:07.645Z,13.47
2022-12-02T05:04:39.891Z,15.32
2022-12-02T05:07:07.471Z,13.52
2022-12-02T05:09:34.318Z,13.32
2022-12-02T05:12:01.108Z,13.90
2022-12-02T05:14:28.543Z,14.43
2022-12-02T05:16:55.437Z,12.80
2022-12-02T05:19:22.248Z,13.40
2022-12-02T05:21:49.070Z,13.82
2022-12-02T05:24:16.736Z,15.20
2022-12-02T05:29:10.407Z,12.77
2022-12-02T05:31:37.326Z,12.35
2022-12-02T05:34:04.171Z,14.35
2022-12-02T05:36:31.085Z,13.83
2022-12-02T05:38:57.920Z,15.68
2022-12-02T05:41:24.801Z,15.10
2022-12-02T05:43:51.643Z,12.73
2022-12-02T05:46:21.609Z,12.52
2022-12-02T05:48:51.151Z,11.70
2022-12-02T05:51:21.810Z,13.45
2022-12-02T05:53:50.791Z,12.45
2022-12-02T05:56:28.646Z,14.65
2022-12-02T05:59:08.185Z,14.30
2022-12-02T06:01:40.587Z,12.60
2022-12-02T06:04:19.371Z,13.43
2022-12-02T06:06:46.561Z,14.20
2022-12-02T06:09:18.538Z,15.80
2022-12-02T06:11:48.046Z,13.50
2022-12-02T06:14:16.748Z,13.70
2022-12-02T06:16:48.874Z,13.68
2022-12-02T06:19:38.286Z,13.55
2022-12-02T06:22:17.284Z,14.13
2022-12-02T06:24:45.014Z,14.50
2022-12-02T06:27:17.789Z,15.48
2022-12-02T06:29:58.308Z,17.42
2022-12-02T06:32:38.078Z,14.40
2022-12-02T06:35:24.274Z,13.80
2022-12-02T06:37:55.899Z,11.27
2022-12-02T06:40:32.240Z,14.20
2022-12-02T06:43:02.017Z,14.05
2022-12-02T06:45:34.826Z,14.85
2022-12-02T06:48:36.898Z,12.77
2022-12-02T06:51:21.871Z,11.85
2022-12-02T06:53:49.128Z,11.40
2022-12-02T06:56:32.683Z,10.88
2022-12-02T06:59:06.381Z,9.10
2022-12-02T07:01:38.837Z,11.88
2022-12-02T07:04:08.827Z,12.48
2022-12-02T07:06:45.580Z,12.43
2022-12-02T07:09:32.919Z,13.15
2022-12-02T07:12:00.546Z,9.68
2022-12-02T07:17:20.232Z,7.95
2022-12-02T07:20:02.165Z,9.48
2022-12-02T07:22:48.477Z,10.15
2022-12-02T07:25:38.846Z,8.98
2022-12-02T07:28:37.159Z,8.57
2022-12-02T07:31:27.734Z,7.50
2022-12-02T07:33:55.141Z,9.30
2022-12-02T07:36:22.276Z,9.02
2022-12-02T07:39:06.237Z,9.75
2022-12-02T07:41:36.800Z,8.48
2022-12-02T07:44:05.655Z,8.25
2022-12-02T07:46:33.176Z,8.95
2022-12-02T07:49:02.906Z,8.93
2022-12-02T07:51:30.133Z,8.85
2022-12-02T07:53:57.557Z,10.02
2022-12-02T07:56:27.248Z,12.27
2022-12-02T07:59:13.745Z,10.50
2022-12-02T08:01:41.822Z,8.57
2022-12-02T08:04:09.313Z,9.05
2022-12-02T08:06:39.749Z,8.95
2022-12-02T08:09:09.582Z,9.55
2022-12-02T08:11:37.085Z,10.57
2022-12-02T08:14:06.634Z,9.95
2022-12-02T08:16:36.271Z,9.95
2022-12-02T08:19:04.256Z,10.43
2022-12-02T08:21:32.822Z,10.05
2022-12-02T08:24:00.707Z,10.75
2022-12-02T08:26:28.532Z,9.20
2022-12-02T08:28:55.631Z,12.43
2022-12-02T08:31:22.941Z,10.13
2022-12-02T08:33:51.108Z,9.95
2022-12-02T08:36:18.509Z,9.95
2022-12-02T08:38:50.829Z,10.50
2022-12-02T08:41:18.478Z,9.40
2022-12-02T08:46:12.888Z,9.38
2022-12-02T08:48:40.034Z,9.18
2022-12-02T08:51:07.058Z,13.13
2022-12-02T08:53:33.977Z,9.05
2022-12-02T08:56:01.191Z,11.48
2022-12-02T08:58:31.277Z,12.73
2022-12-02T09:01:02.536Z,10.32
2022-12-02T09:03:29.529Z,11.05
2022-12-02T09:05:57.095Z,7.40
2022-12-02T09:08:24.038Z,10.27
2022-12-02T09:10:51.417Z,11.82
2022-12-02T09:13:18.309Z,11.93
2022-12-02T09:15:45.220Z,11.55
2022-12-02T09:18:14.542Z,13.48
2022-12-02T09:20:42.245Z,10.68
2022-12-02T09:23:09.556Z,12.50
2022-12-02T09:25:36.797Z,9.18
2022-12-02T09:28:03.685Z,9.27
2022-12-02T09:30:30.659Z,12.27
2022-12-02T09:32:57.586Z,14.27
2022-12-02T09:35:24.441Z,10.77
2022-12-02T09:37:51.350Z,11.35
2022-12-02T09:40:18.516Z,10.55
2022-12-02T09:46:43.741Z,9.68
2022-12-02T09:49:11.634Z,13.00
2022-12-02T09:51:38.608Z,9.10
2022-12-02T09:54:05.570Z,13.65
2022-12-02T09:56:32.475Z,11.35
2022-12-02T09:58:59.269Z,12.32
2022-12-02T10:01:27.118Z,11.27
2022-12-02T10:03:55.034Z,11.30
2022-12-02T10:06:29.157Z,10.82
2022-12-02T10:08:58.345Z,10.45
2022-12-02T10:11:32.727Z,11.32
2022-12-02T10:14:00.769Z,12.52
2022-12-02T10:16:28.921Z,12.43
2022-12-02T10:19:05.201Z,14.38
2022-12-02T10:21:32.951Z,11.75
2022-12-02T10:24:10.222Z,11.38
2022-12-02T10:26:52.709Z,11.90
2022-12-02T10:29:30.642Z,12.18
2022-12-02T10:32:06.610Z,10.07
2022-12-02T10:34:41.047Z,10.23
2022-12-02T10:37:29.286Z,13.38
2022-12-02T10:40:16.716Z,11.82
2022-12-02T10:42:45.458Z,11.02
2022-12-02T10:45:24.093Z,10.40
2022-12-02T10:48:12.367Z,10.98
2022-12-02T10:50:39.625Z,9.98
2022-12-02T10:53:18.517Z,10.77
2022-12-02T10:55:48.411Z,9.82
2022-12-02T10:58:29.988Z,10.45
2022-12-02T11:00:59.675Z,11.80
2022-12-02T11:03:29.951Z,13.13
2022-12-02T11:05:59.367Z,11.60
2022-12-02T11:08:29.236Z,10.93
2022-12-02T11:11:23.403Z,12.27
2022-12-02T11:14:00.298Z,11.68
2022-12-02T11:16:27.324Z,11.68
2022-12-02T11:19:09.260Z,11.98
2022-12-02T11:21:45.855Z,10.38
2022-12-02T11:24:27.661Z,12.32
2022-12-02T11:27:03.494Z,9.00
2022-12-02T11:30:07.134Z,11.63
2022-12-02T11:32:37.005Z,9.88
2022-12-02T11:35:17.559Z,12.07
2022-12-02T11:37:48.019Z,10.07
2022-12-02T11:40:17.818Z,12.15
2022-12-02T11:42:46.669Z,12.82
2022-12-02T11:45:39.140Z,9.80
2022-12-02T11:48:16.831Z,10.20
2022-12-02T11:50:43.737Z,11.23
2022-12-02T11:53:19.163Z,9.90
2022-12-02T11:55:52.939Z,10.07
2022-12-02T11:58:32.428Z,11.38
2022-12-02T12:01:21.145Z,10.85
2022-12-02T12:03:51.576Z,8.68
2022-12-02T12:06:25.811Z,13.13
2022-12-02T12:08:57.303Z,9.18
2022-12-02T12:11:29.073Z,11.05
2022-12-02T12:14:11.935Z,9.70
2022-12-02T12:16:47.355Z,11.88
2022-12-02T12:19:15.246Z,10.23
2022-12-02T12:21:50.244Z,10.65
2022-12-02T12:24:20.776Z,9.02
2022-12-02T12:27:03.522Z,8.85
2022-12-02T12:29:35.888Z,10.90
2022-12-02T12:32:04.089Z,8.85
2022-12-02T12:34:32.255Z,8.68
2022-12-02T12:36:59.506Z,9.13
2022-12-02T12:39:26.553Z,8.68
2022-12-02T12:42:01.772Z,9.30
2022-12-02T12:44:34.643Z,11.20
2022-12-02T12:47:04.623Z,11.50
2022-12-02T12:49:33.844Z,10.93
2022-12-02T12:52:02.054Z,9.77
2022-12-02T12:54:29.602Z,10.90
2022-12-02T12:56:56.606Z,10.25
2022-12-02T12:59:23.459Z,13.32
2022-12-02T13:01:50.452Z,10.07
2022-12-02T13:04:17.376Z,10.65
2022-12-02T13:06:44.297Z,10.55
2022-12-02T13:09:12.376Z,10.10
2022-12-02T13:11:40.409Z,12.98
2022-12-02T13:14:10.189Z,10.75
2022-12-02T13:17:18.618Z,11.32
2022-12-02T13:19:45.539Z,10.20
2022-12-02T13:22:12.418Z,8.55
2022-12-02T13:24:43.130Z,11.13
2022-12-02T13:27:10.401Z,9.43
2022-12-02T13:29:37.706Z,11.50
2022-12-02T13:32:04.826Z,10.43
2022-12-02T13:34:31.690Z,11.00
2022-12-02T13:36:58.520Z,8.43
2022-12-02T13:39:25.508Z,11.57
2022-12-02T13:41:52.328Z,10.32
2022-12-02T13:44:19.130Z,7.93
2022-12-02T13:46:46.018Z,9.67
2022-12-02T13:49:12.920Z,11.15
2022-12-02T13:51:39.780Z,9.57
2022-12-02T13:54:06.668Z,10.75
2022-12-02T13:56:33.461Z,11.20
2022-12-02T13:59:00.357Z,10.67
2022-12-02T14:01:27.600Z,10.88
2022-12-02T14:03:54.595Z,8.52
2022-12-02T14:06:34.080Z,12.88
2022-12-02T14:09:01.107Z,9.02
2022-12-02T14:11:28.331Z,11.85
2022-12-02T14:13:55.408Z,10.65
2022-12-02T14:16:22.419Z,8.63
2022-12-02T14:18:55.466Z,9.30
2022-12-02T14:21:24.845Z,8.25
2022-12-02T14:26:18.569Z,7.43
2022-12-02T14:28:45.548Z,11.15
2022-12-02T14:31:21.982Z,9.13
2022-12-02T14:34:14.090Z,10.07
2022-12-02T14:36:40.749Z,8.23
2022-12-02T14:39:07.787Z,10.30
2022-12-02T14:41:34.736Z,12.23
2022-12-02T14:44:01.624Z,10.57
2022-12-02T14:46:30.477Z,11.07
2022-12-02T14:49:23.155Z,11.63
2022-12-02T14:51:44.674Z,11.55
2022-12-02T14:54:11.646Z,13.07
2022-12-02T14:56:40.374Z,11.77
2022-12-02T14:59:12.600Z,10.73
2022-12-02T15:01:41.723Z,9.52
2022-12-02T15:04:08.995Z,11.10
2022-12-02T15:06:36.443Z,9.60
2022-12-02T15:09:04.572Z,11.68
2022-12-02T15:11:31.574Z,12.48
2022-12-02T15:13:58.517Z,11.68
2022-12-02T15:16:25.502Z,10.25
2022-12-02T15:18:52.587Z,11.05
2022-12-02T15:21:26.367Z,13.93
2022-12-02T15:23:53.229Z,12.43
2022-12-02T15:26:20.286Z,10.10
2022-12-02T15:28:47.233Z,11.63
2022-12-02T15:31:17.554Z,7.85
2022-12-02T15:33:46.222Z,12.02
2022-12-02T15:36:13.901Z,11.57
2022-12-02T15:41:08.328Z,9.75
2022-12-02T15:46:02.685Z,8.35
2022-12-02T15:48:29.612Z,10.80
2022-12-02T15:50:56.648Z,9.68
2022-12-02T15:53:24.576Z,10.65
2022-12-02T15:55:52.194Z,12.57
2022-12-02T16:00:46.279Z,10.93
2022-12-02T16:03:13.481Z,9.32
2022-12-02T16:05:40.358Z,10.43
2022-12-02T16:08:07.940Z,9.95
2022-12-02T16:13:02.669Z,8.52
2022-12-02T16:15:29.539Z,10.85
2022-12-02T16:17:56.525Z,9.20
2022-12-02T16:20:23.561Z,10.20
2022-12-02T16:22:50.574Z,10.68
2022-12-02T16:25:17.498Z,14.88
2022-12-02T16:27:44.381Z,11.20
2022-12-02T16:30:12.111Z,11.38
2022-12-02T16:35:06.288Z,10.27
2022-12-02T16:37:33.113Z,10.32
2022-12-02T16:40:00.023Z,11.20
2022-12-02T16:42:27.407Z,14.85
2022-12-02T16:44:56.002Z,12.30
2022-12-02T16:47:23.880Z,9.40
2022-12-02T16:52:18.366Z,10.38
2022-12-02T16:54:45.662Z,11.32
2022-12-02T17:01:12.752Z,10.57
2022-12-02T17:03:39.637Z,12.10
2022-12-02T17:07:23.771Z,13.13
2022-12-02T17:13:56.829Z,12.13
2022-12-02T17:16:23.720Z,12.82
2022-12-02T17:18:50.643Z,11.95
2022-12-02T17:21:17.589Z,12.40
2022-12-02T17:23:44.520Z,13.65
2022-12-02T17:26:11.391Z,13.30
2022-12-02T17:28:38.201Z,12.70
2022-12-02T17:31:05.290Z,12.83
2022-12-02T17:33:32.098Z,15.13
2022-12-02T17:35:58.980Z,12.07
2022-12-02T17:38:25.793Z,12.50
2022-12-02T17:41:10.392Z,13.60
2022-12-02T17:43:40.282Z,10.07
2022-12-02T17:46:07.465Z,10.45
2022-12-02T17:48:34.304Z,13.45
2022-12-02T17:51:01.140Z,12.60
2022-12-02T17:53:28.074Z,12.60
2022-12-02T17:55:55.089Z,11.63
2022-12-02T17:58:22.113Z,12.95
2022-12-02T18:00:48.960Z,11.52
2022-12-02T18:03:15.978Z,11.75
2022-12-02T18:05:42.837Z,8.55
2022-12-02T18:08:09.767Z,10.57
2022-12-02T18:10:36.663Z,10.00
2022-12-02T18:13:03.648Z,9.70
2022-12-02T18:15:30.444Z,9.57
2022-12-02T18:17:57.264Z,9.07
2022-12-02T18:20:24.160Z,8.20
2022-12-02T18:22:51.217Z,10.27
2022-12-02T18:25:18.036Z,8.48
2022-12-02T18:27:44.917Z,8.90
2022-12-02T18:30:17.409Z,8.00
2022-12-02T18:32:46.724Z,8.77
2022-12-02T18:35:15.117Z,8.57
2022-12-02T18:37:42.425Z,9.70
2022-12-02T18:40:17.142Z,8.32
2022-12-02T18:42:44.401Z,8.95
2022-12-02T18:45:11.793Z,8.07
2022-12-02T18:47:39.487Z,7.95
2022-12-02T18:50:08.552Z,6.78
2022-12-02T18:52:35.520Z,7.15
2022-12-02T18:55:02.601Z,8.98
2022-12-02T18:57:29.401Z,7.07
2022-12-02T18:59:56.909Z,8.40
2022-12-02T19:02:23.821Z,6.68
2022-12-02T19:04:51.128Z,7.03
2022-12-02T19:07:19.240Z,6.05
2022-12-02T19:09:51.630Z,5.95
2022-12-02T19:12:20.706Z,5.55
2022-12-02T19:14:47.583Z,6.30
2022-12-02T19:17:14.702Z,7.45
2022-12-02T19:19:41.764Z,7.88
2022-12-02T19:22:10.393Z,5.60
2022-12-02T19:24:37.323Z,7.00
2022-12-02T19:27:04.873Z,6.85
2022-12-02T19:29:31.876Z,5.22
2022-12-02T19:31:58.847Z,5.20
2022-12-02T19:34:25.877Z,5.00
2022-12-02T19:36:52.909Z,5.40
2022-12-02T19:39:19.874Z,6.03
2022-12-02T19:41:46.896Z,5.22
2022-12-02T19:44:13.896Z,5.70
2022-12-02T19:46:40.847Z,5.00
2022-12-02T19:49:07.846Z,4.40
2022-12-02T19:51:34.665Z,5.03
2022-12-02T19:54:01.526Z,5.63
2022-12-02T19:56:28.470Z,5.90
2022-12-02T19:58:55.324Z,4.75
2022-12-02T20:01:23.885Z,3.78
2022-12-02T20:03:50.851Z,5.28
2022-12-02T20:06:17.961Z,4.18
2022-12-02T20:08:44.782Z,4.65
2022-12-02T20:11:11.596Z,5.00
2022-12-02T20:13:38.584Z,4.83
2022-12-02T20:16:05.580Z,4.50
2022-12-02T20:18:32.475Z,4.30
2022-12-02T20:20:59.422Z,4.22
2022-12-02T20:23:26.314Z,4.60
2022-12-02T20:25:53.237Z,4.68
2022-12-02T20:28:21.130Z,4.63
2022-12-02T20:30:47.978Z,4.55
2022-12-02T20:33:14.854Z,4.30
2022-12-02T20:35:41.724Z,4.85
2022-12-02T20:38:08.585Z,3.70
2022-12-02T20:40:35.487Z,3.75
2022-12-02T20:43:02.480Z,4.45
2022-12-02T20:45:29.309Z,3.65
2022-12-02T20:47:56.196Z,4.35
2022-12-02T20:50:23.199Z,5.63
2022-12-02T20:52:53.973Z,5.05
2022-12-02T20:55:21.690Z,6.25
2022-12-02T20:57:48.676Z,4.28
2022-12-02T21:00:17.722Z,4.00
2022-12-02T21:02:44.688Z,5.07
2022-12-02T21:05:11.510Z,4.90
2022-12-02T21:07:38.896Z,4.33
2022-12-02T21:10:06.857Z,4.15
2022-12-02T21:12:34.447Z,4.13
2022-12-02T21:17:30.214Z,2.78
2022-12-02T21:19:57.229Z,2.88
2022-12-02T21:22:24.226Z,4.57
2022-12-02T21:24:51.495Z,4.85
2022-12-02T21:29:46.030Z,3.72
2022-12-02T21:32:12.807Z,3.07
2022-12-02T21:34:39.717Z,3.35
2022-12-02T21:37:06.505Z,3.05
2022-12-02T21:39:33.406Z,3.90
2022-12-02T21:42:00.282Z,3.85
2022-12-02T21:44:27.109Z,3.85
2022-12-02T21:46:54.016Z,3.07
2022-12-02T21:49:20.861Z,4.53
2022-12-02T21:51:49.546Z,4.07
2022-12-02T21:54:16.893Z,3.83
2022-12-02T21:56:43.749Z,4.72
2022-12-02T21:59:10.630Z,3.08
2022-12-02T22:01:43.505Z,3.85
2022-12-02T22:04:15.048Z,3.22
2022-12-02T22:06:43.096Z,4.00
2022-12-02T22:09:10.147Z,3.00
2022-12-02T22:11:37.692Z,4.13
2022-12-02T22:16:32.745Z,3.35
2022-12-02T22:19:00.233Z,2.97
2022-12-02T22:21:27.184Z,4.75
2022-12-02T22:23:54.066Z,3.70
2022-12-02T22:26:20.929Z,3.50
2022-12-02T22:28:47.934Z,5.07
2022-12-02T22:31:14.932Z,3.38
2022-12-02T22:33:41.908Z,3.13
2022-12-02T22:36:09.173Z,2.75
2022-12-02T22:38:36.095Z,3.83
2022-12-02T22:41:03.296Z,4.05
2022-12-02T22:43:30.096Z,3.65
2022-12-02T22:45:56.938Z,2.60
2022-12-02T22:48:23.925Z,2.90
2022-12-02T22:50:51.003Z,2.70
2022-12-02T22:53:17.913Z,2.53
2022-12-02T22:55:47.326Z,5.22
2022-12-02T22:58:14.206Z,3.38
2022-12-02T23:00:41.011Z,3.22
2022-12-02T23:03:08.134Z,3.50
2022-12-02T23:05:34.974Z,2.85
2022-12-02T23:08:01.801Z,3.10
2022-12-02T23:10:28.710Z,2.97
2022-12-02T23:12:55.498Z,3.15
2022-12-02T23:15:38.980Z,4.20
2022-12-02T23:18:07.755Z,2.58
2022-12-02T23:20:35.494Z,2.83
2022-12-02T23:23:02.337Z,3.28
2022-12-02T23:25:29.222Z,2.85
2022-12-02T23:27:56.506Z,4.15
2022-12-02T23:30:28.436Z,3.08
2022-12-02T23:32:59.592Z,2.80
2022-12-02T23:35:27.801Z,2.05
2022-12-02T23:37:54.800Z,4.93
2022-12-02T23:40:21.755Z,3.50
2022-12-02T23:42:48.565Z,2.75
2022-12-02T23:45:15.744Z,2.47
2022-12-02T23:47:42.556Z,2.70
2022-12-02T23:50:10.060Z,2.60
2022-12-02T23:52:36.857Z,3.03
2022-12-02T23:55:04.050Z,2.83
2022-12-02T23:57:31.012Z,2.90
2022-12-02T23:59:57.921Z,2.88
